createdAt,value
2023-02-03T00:02:04.280Z,87.66
2023-02-03T00:04:31.240Z,87.29
2023-02-03T00:06:58.282Z,87.03
2023-02-03T00:09:25.967Z,87.38
2023-02-03T00:11:53.872Z,87.08
2023-02-03T00:14:20.762Z,86.61
2023-02-03T00:16:47.806Z,87.05
2023-02-03T00:19:17.307Z,87.35
2023-02-03T00:21:44.808Z,87.30
2023-02-03T00:24:11.922Z,86.55
2023-02-03T00:26:42.910Z,86.93
2023-02-03T00:29:10.210Z,87.08
2023-02-03T00:31:37.395Z,87.30
2023-02-03T00:34:06.105Z,87.29
2023-02-03T00:36:33.430Z,87.03
2023-02-03T00:39:01.540Z,87.49
2023-02-03T00:41:31.641Z,87.03
2023-02-03T00:43:59.029Z,87.57
2023-02-03T00:46:26.120Z,87.73
2023-02-03T00:48:53.177Z,87.07
2023-02-03T00:51:20.111Z,87.24
2023-02-03T00:53:47.986Z,87.33
2023-02-03T00:56:15.246Z,87.34
2023-02-03T00:58:42.375Z,87.45
2023-02-03T01:01:10.637Z,86.89
2023-02-03T01:03:37.968Z,86.86
2023-02-03T01:06:12.251Z,87.03
2023-02-03T01:08:39.450Z,86.10
2023-02-03T01:11:11.061Z,86.38
2023-02-03T01:13:38.061Z,86.81
2023-02-03T01:16:11.010Z,86.57
2023-02-03T01:18:38.300Z,85.95
2023-02-03T01:21:11.464Z,85.52
2023-02-03T01:23:38.382Z,86.31
2023-02-03T01:26:07.465Z,86.47
2023-02-03T01:28:34.851Z,85.64
2023-02-03T01:31:24.575Z,85.69
2023-02-03T01:33:55.538Z,85.23
2023-02-03T01:36:26.403Z,86.27
2023-02-03T01:38:54.508Z,86.24
2023-02-03T01:41:25.371Z,86.18
2023-02-03T01:43:55.234Z,85.84
2023-02-03T01:46:28.637Z,85.95
2023-02-03T01:49:29.861Z,86.42
2023-02-03T01:51:57.040Z,85.46
2023-02-03T01:54:29.745Z,84.90
2023-02-03T01:57:06.442Z,85.27
2023-02-03T01:59:34.909Z,85.47
2023-02-03T02:02:04.249Z,84.78
2023-02-03T02:04:56.858Z,84.87
2023-02-03T02:07:25.245Z,84.33
2023-02-03T02:09:52.451Z,85.45
2023-02-03T02:12:19.359Z,84.07
2023-02-03T02:14:48.083Z,84.85
2023-02-03T02:17:33.485Z,84.17
2023-02-03T02:20:20.742Z,84.60
2023-02-03T02:23:22.961Z,84.51
2023-02-03T02:25:52.455Z,83.60
2023-02-03T02:28:41.895Z,84.36
2023-02-03T02:31:17.974Z,85.05
2023-02-03T02:34:02.639Z,86.43
2023-02-03T02:36:50.779Z,85.90
2023-02-03T02:39:29.944Z,86.17
2023-02-03T02:42:01.572Z,85.89
2023-02-03T02:45:01.094Z,86.46
2023-02-03T02:47:28.643Z,85.34
2023-02-03T02:50:03.855Z,85.55
2023-02-03T02:52:34.359Z,85.00
2023-02-03T02:55:10.240Z,85.54
2023-02-03T02:57:39.328Z,85.23
2023-02-03T03:00:07.652Z,85.22
2023-02-03T03:02:36.480Z,84.61
2023-02-03T03:05:08.056Z,84.75
2023-02-03T03:07:51.451Z,84.11
2023-02-03T03:10:24.811Z,83.86
2023-02-03T03:12:59.577Z,83.90
2023-02-03T03:15:31.166Z,83.41
2023-02-03T03:18:04.991Z,83.10
2023-02-03T03:20:33.975Z,84.08
2023-02-03T03:23:07.174Z,83.94
2023-02-03T03:25:43.447Z,83.41
2023-02-03T03:28:16.458Z,83.89
2023-02-03T03:30:43.932Z,84.74
2023-02-03T03:33:10.977Z,83.72
2023-02-03T03:35:45.902Z,84.26
2023-02-03T03:38:25.228Z,84.05
2023-02-03T03:41:00.591Z,83.01
2023-02-03T03:43:32.483Z,83.05
2023-02-03T03:46:11.767Z,82.77
2023-02-03T03:49:01.854Z,83.16
2023-02-03T03:51:35.184Z,82.72
2023-02-03T03:54:06.000Z,82.46
2023-02-03T03:56:40.585Z,82.00
2023-02-03T03:59:10.134Z,82.30
2023-02-03T04:01:38.784Z,82.11
2023-02-03T04:04:09.558Z,81.79
2023-02-03T04:06:39.238Z,82.65
2023-02-03T04:09:06.736Z,83.03
2023-02-03T04:11:52.081Z,81.55
2023-02-03T04:14:19.093Z,80.73
2023-02-03T04:16:46.093Z,79.81
2023-02-03T04:19:13.055Z,79.36
2023-02-03T04:21:40.139Z,78.30
2023-02-03T04:24:07.497Z,77.92
2023-02-03T04:26:34.463Z,80.72
2023-02-03T04:29:01.371Z,80.20
2023-02-03T04:31:28.382Z,81.16
2023-02-03T04:33:55.435Z,81.58
2023-02-03T04:36:22.382Z,82.27
2023-02-03T04:38:50.055Z,82.61
2023-02-03T04:41:17.223Z,82.56
2023-02-03T04:43:44.324Z,82.96
2023-02-03T04:46:11.443Z,83.11
2023-02-03T04:48:38.696Z,83.48
2023-02-03T04:51:07.520Z,83.28
2023-02-03T04:53:35.568Z,83.66
2023-02-03T04:56:02.494Z,83.46
2023-02-03T04:58:29.422Z,83.49
2023-02-03T05:00:56.435Z,82.84
2023-02-03T05:03:25.810Z,83.94
2023-02-03T05:05:56.530Z,85.02
2023-02-03T05:08:23.467Z,85.68
2023-02-03T05:10:50.356Z,86.36
2023-02-03T05:13:17.407Z,86.63
2023-02-03T05:15:44.254Z,86.91
2023-02-03T05:18:11.176Z,87.30
2023-02-03T05:20:38.082Z,88.22
2023-02-03T05:23:04.979Z,87.92
2023-02-03T05:25:32.157Z,86.96
2023-02-03T05:27:59.193Z,87.21
2023-02-03T05:30:26.492Z,86.84
2023-02-03T05:32:53.772Z,85.91
2023-02-03T05:35:20.770Z,86.56
2023-02-03T05:37:49.156Z,86.60
2023-02-03T05:40:34.566Z,86.41
2023-02-03T05:43:01.513Z,86.14
2023-02-03T05:45:28.499Z,85.79
2023-02-03T05:47:55.432Z,85.09
2023-02-03T05:50:23.027Z,85.86
2023-02-03T05:52:50.669Z,85.96
2023-02-03T05:55:17.684Z,85.72
2023-02-03T05:57:44.620Z,85.46
2023-02-03T06:00:12.250Z,85.36
2023-02-03T06:02:39.155Z,85.61
2023-02-03T06:05:06.559Z,85.78
2023-02-03T06:07:33.455Z,86.05
2023-02-03T06:10:00.333Z,85.07
2023-02-03T06:12:29.135Z,85.26
2023-02-03T06:14:56.293Z,85.45
2023-02-03T06:17:23.343Z,84.29
2023-02-03T06:19:50.241Z,83.81
2023-02-03T06:22:17.134Z,83.95
2023-02-03T06:24:46.266Z,83.40
2023-02-03T06:27:13.187Z,83.20
2023-02-03T06:29:41.268Z,82.84
2023-02-03T06:32:08.992Z,83.43
2023-02-03T06:34:36.326Z,82.55
2023-02-03T06:37:03.473Z,84.25
2023-02-03T06:39:30.435Z,83.17
2023-02-03T06:41:57.404Z,83.36
2023-02-03T06:44:24.327Z,84.41
2023-02-03T06:46:51.405Z,84.36
2023-02-03T06:49:19.019Z,83.91
2023-02-03T06:51:46.616Z,83.10
2023-02-03T06:54:14.199Z,83.11
2023-02-03T06:56:41.394Z,83.45
2023-02-03T06:59:09.095Z,83.32
2023-02-03T07:01:37.039Z,83.28
2023-02-03T07:04:04.774Z,82.33
2023-02-03T07:06:34.179Z,82.83
2023-02-03T07:09:02.978Z,81.96
2023-02-03T07:11:31.006Z,82.76
2023-02-03T07:13:58.170Z,82.57
2023-02-03T07:16:25.337Z,82.68
2023-02-03T07:18:52.260Z,81.97
2023-02-03T07:21:19.487Z,81.56
2023-02-03T07:23:49.896Z,82.20
2023-02-03T07:26:17.863Z,82.86
2023-02-03T07:28:45.347Z,82.50
2023-02-03T07:31:12.386Z,82.16
2023-02-03T07:33:39.951Z,82.34
2023-02-03T07:36:08.058Z,82.02
2023-02-03T07:38:35.044Z,82.40
2023-02-03T07:41:01.948Z,81.80
2023-02-03T07:43:29.210Z,82.51
2023-02-03T07:45:56.153Z,82.00
2023-02-03T07:48:23.348Z,82.36
2023-02-03T07:50:50.978Z,82.47
2023-02-03T07:53:17.922Z,81.44
2023-02-03T07:55:44.894Z,81.01
2023-02-03T07:58:11.898Z,81.03
2023-02-03T08:00:38.854Z,80.54
2023-02-03T08:03:05.732Z,80.76
2023-02-03T08:05:33.048Z,80.84
2023-02-03T08:08:00.309Z,79.44
2023-02-03T08:10:27.577Z,80.88
2023-02-03T08:12:56.062Z,79.96
2023-02-03T08:15:22.989Z,78.98
2023-02-03T08:17:50.308Z,79.20
2023-02-03T08:20:17.718Z,79.68
2023-02-03T08:22:45.206Z,78.84
2023-02-03T08:25:12.838Z,80.06
2023-02-03T08:27:40.780Z,78.80
2023-02-03T08:30:10.381Z,79.64
2023-02-03T08:32:37.323Z,78.99
2023-02-03T08:35:04.567Z,79.61
2023-02-03T08:37:32.823Z,78.74
2023-02-03T08:40:00.230Z,78.21
2023-02-03T08:42:27.499Z,78.05
2023-02-03T08:44:54.408Z,77.71
2023-02-03T08:47:21.457Z,76.13
2023-02-03T08:49:48.464Z,76.49
2023-02-03T08:52:18.056Z,76.53
2023-02-03T08:54:46.961Z,75.33
2023-02-03T08:57:14.091Z,75.94
2023-02-03T08:59:43.076Z,75.83
2023-02-03T09:02:15.638Z,74.93
2023-02-03T09:04:42.799Z,74.11
2023-02-03T09:07:09.891Z,73.23
2023-02-03T09:09:37.621Z,73.28
2023-02-03T09:12:07.313Z,73.68
2023-02-03T09:14:35.132Z,73.65
2023-02-03T09:17:04.127Z,73.56
2023-02-03T09:19:34.277Z,73.53
2023-02-03T09:22:02.234Z,71.48
2023-02-03T09:24:29.371Z,72.58
2023-02-03T09:26:57.316Z,70.30
2023-02-03T09:29:24.421Z,72.06
2023-02-03T09:31:53.028Z,67.24
2023-02-03T09:34:21.028Z,68.33
2023-02-03T09:36:48.225Z,65.42
2023-02-03T09:39:15.923Z,68.26
2023-02-03T09:41:51.578Z,65.58
2023-02-03T10:17:23.678Z,69.09
2023-02-03T10:20:02.908Z,67.91
2023-02-03T10:22:32.498Z,66.33
2023-02-03T10:25:08.389Z,67.48
2023-02-03T10:27:37.543Z,66.04
2023-02-03T10:30:16.184Z,66.59
2023-02-03T10:32:43.191Z,66.14
2023-02-03T10:35:13.675Z,66.12
2023-02-03T10:37:48.303Z,62.88
2023-02-03T10:40:17.242Z,65.26
2023-02-03T10:43:06.941Z,65.10
2023-02-03T10:45:37.780Z,66.44
2023-02-03T10:48:07.402Z,63.85
2023-02-03T10:50:35.843Z,63.99
2023-02-03T10:53:32.606Z,63.88
2023-02-03T10:56:09.156Z,64.62
2023-02-03T10:58:39.430Z,64.14
2023-02-03T11:01:14.252Z,65.75
2023-02-03T11:03:55.210Z,64.23
2023-02-03T11:06:22.250Z,66.13
2023-02-03T11:08:51.364Z,66.13
2023-02-03T11:11:34.276Z,64.60
2023-02-03T11:14:13.239Z,61.25
2023-02-03T11:16:43.409Z,61.22
2023-02-03T11:19:21.301Z,61.93
2023-02-03T11:21:51.864Z,61.22
2023-02-03T11:24:26.764Z,64.11
2023-02-03T11:27:14.846Z,65.78
2023-02-03T11:29:47.875Z,64.48
2023-02-03T11:32:36.157Z,64.48
2023-02-03T11:35:23.744Z,64.52
2023-02-03T11:37:52.149Z,63.14
2023-02-03T11:40:22.172Z,64.46
2023-02-03T11:42:49.020Z,62.25
2023-02-03T11:45:26.822Z,62.74
2023-02-03T11:47:58.611Z,62.06
2023-02-03T11:50:28.779Z,62.25
2023-02-03T11:53:22.918Z,63.85
2023-02-03T11:55:59.059Z,63.48
2023-02-03T11:58:50.561Z,62.46
2023-02-03T12:01:25.844Z,64.75
2023-02-03T12:04:17.008Z,65.73
2023-02-03T12:06:43.983Z,63.76
2023-02-03T12:09:35.800Z,65.04
2023-02-03T12:12:17.953Z,65.93
2023-02-03T12:15:06.030Z,67.20
2023-02-03T12:17:35.607Z,64.99
2023-02-03T12:20:02.489Z,64.45
2023-02-03T12:22:51.876Z,63.59
2023-02-03T12:25:41.525Z,65.51
2023-02-03T12:28:23.727Z,64.76
2023-02-03T12:31:09.587Z,64.87
2023-02-03T12:33:45.000Z,65.20
2023-02-03T12:36:18.935Z,64.60
2023-02-03T12:39:05.816Z,65.50
2023-02-03T12:41:38.455Z,64.93
2023-02-03T12:44:14.205Z,64.43
2023-02-03T12:46:47.596Z,65.15
2023-02-03T12:49:23.704Z,66.32
2023-02-03T12:52:00.366Z,64.85
2023-02-03T12:55:08.630Z,62.88
2023-02-03T12:57:35.486Z,63.86
2023-02-03T13:00:27.147Z,63.99
2023-02-03T13:03:09.188Z,63.68
2023-02-03T13:05:44.018Z,63.14
2023-02-03T13:08:23.015Z,62.88
2023-02-03T13:10:57.265Z,63.53
2023-02-03T13:13:35.026Z,61.54
2023-02-03T13:16:08.118Z,63.19
2023-02-03T13:18:39.014Z,62.52
2023-02-03T13:21:06.092Z,61.71
2023-02-03T13:23:33.086Z,61.93
2023-02-03T13:26:30.971Z,63.07
2023-02-03T13:29:13.160Z,63.49
2023-02-03T13:32:00.683Z,63.09
2023-02-03T13:34:53.661Z,63.66
2023-02-03T13:37:45.356Z,63.44
2023-02-03T13:40:36.575Z,63.07
2023-02-03T13:43:11.434Z,63.16
2023-02-03T13:45:45.372Z,62.01
2023-02-03T13:48:23.602Z,63.37
2023-02-03T13:51:02.757Z,65.17
2023-02-03T13:53:36.399Z,64.04
2023-02-03T13:56:06.727Z,64.04
2023-02-03T13:58:37.367Z,64.57
2023-02-03T14:01:31.052Z,64.27
2023-02-03T14:03:58.596Z,65.87
2023-02-03T14:06:40.827Z,68.47
2023-02-03T14:09:24.336Z,69.75
2023-02-03T14:11:52.199Z,72.55
2023-02-03T14:14:20.876Z,73.47
2023-02-03T14:16:54.290Z,74.88
2023-02-03T14:19:21.689Z,77.10
2023-02-03T14:21:53.369Z,77.55
2023-02-03T14:24:21.864Z,78.80
2023-02-03T14:26:52.256Z,79.29
2023-02-03T14:29:29.661Z,79.87
2023-02-03T14:32:08.084Z,78.22
2023-02-03T14:34:38.958Z,79.38
2023-02-03T14:37:24.103Z,78.64
2023-02-03T14:40:23.454Z,79.06
2023-02-03T14:43:09.437Z,78.61
2023-02-03T14:45:55.014Z,77.39
2023-02-03T14:48:40.941Z,76.74
2023-02-03T14:51:25.192Z,76.47
2023-02-03T14:53:59.983Z,77.10
2023-02-03T14:57:32.886Z,77.57
2023-02-03T15:00:02.459Z,77.63
2023-02-03T15:02:31.376Z,78.36
2023-02-03T15:05:18.528Z,79.35
2023-02-03T15:07:49.496Z,81.73
2023-02-03T15:10:27.047Z,85.00
2023-02-03T15:12:57.095Z,86.90
2023-02-03T15:15:28.377Z,88.38
2023-02-03T15:17:58.114Z,88.81
2023-02-03T15:20:41.632Z,87.44
2023-02-03T15:23:22.631Z,87.10
2023-02-03T15:25:58.320Z,86.08
2023-02-03T15:28:27.362Z,85.83
2023-02-03T15:30:57.980Z,84.98
2023-02-03T15:33:25.415Z,85.63
2023-02-03T15:36:02.021Z,85.05
2023-02-03T15:38:42.164Z,85.72
2023-02-03T15:41:20.926Z,86.83
2023-02-03T15:43:52.465Z,87.19
2023-02-03T15:46:37.435Z,86.36
2023-02-03T15:49:16.616Z,86.76
2023-02-03T15:51:49.993Z,86.54
2023-02-03T15:54:24.964Z,85.35
2023-02-03T15:57:10.976Z,85.27
2023-02-03T15:59:52.569Z,85.08
2023-02-03T16:02:22.080Z,84.91
2023-02-03T16:04:50.894Z,83.71
2023-02-03T16:07:30.146Z,81.62
2023-02-03T16:09:58.849Z,80.31
2023-02-03T16:12:33.431Z,80.23
2023-02-03T16:15:02.038Z,80.57
2023-02-03T16:17:33.976Z,81.57
2023-02-03T16:20:13.324Z,82.26
2023-02-03T16:22:41.287Z,83.41
2023-02-03T16:25:20.301Z,83.70
2023-02-03T16:28:20.802Z,85.17
2023-02-03T16:31:19.573Z,85.92
2023-02-03T16:34:07.702Z,85.76
2023-02-03T16:36:59.472Z,85.78
2023-02-03T16:39:45.786Z,84.39
2023-02-03T16:42:37.275Z,83.20
2023-02-03T16:45:31.540Z,82.75
2023-02-03T16:48:17.709Z,81.23
2023-02-03T16:50:58.245Z,81.99
2023-02-03T16:53:32.297Z,81.49
2023-02-03T16:56:01.916Z,82.88
2023-02-03T16:58:28.889Z,82.96
2023-02-03T17:00:58.154Z,83.95
2023-02-03T17:03:27.527Z,83.83
2023-02-03T17:05:55.643Z,84.09
2023-02-03T17:08:25.430Z,83.34
2023-02-03T17:10:52.662Z,83.73
2023-02-03T17:13:21.613Z,83.40
2023-02-03T17:15:52.847Z,83.09
2023-02-03T17:18:19.945Z,83.10
2023-02-03T17:20:47.702Z,82.41
2023-02-03T17:23:18.076Z,81.48
2023-02-03T17:25:47.558Z,81.68
2023-02-03T17:28:14.766Z,81.70
2023-02-03T17:30:42.705Z,80.98
2023-02-03T17:33:13.563Z,82.11
2023-02-03T17:35:45.081Z,82.43
2023-02-03T17:38:14.129Z,81.94
2023-02-03T17:54:33.133Z,82.51
2023-02-03T17:57:00.084Z,81.05
2023-02-03T17:59:27.156Z,80.17
2023-02-03T18:01:54.220Z,79.88
2023-02-03T18:04:21.196Z,78.84
2023-02-03T18:06:48.171Z,78.01
2023-02-03T18:09:16.792Z,77.88
2023-02-03T18:11:45.890Z,77.54
2023-02-03T18:14:15.128Z,78.01
2023-02-03T18:16:42.798Z,78.54
2023-02-03T18:19:14.350Z,78.69
2023-02-03T18:21:42.924Z,79.04
2023-02-03T18:24:12.039Z,78.56
2023-02-03T18:26:51.119Z,78.52
2023-02-03T18:29:18.747Z,79.60
2023-02-03T18:31:46.374Z,80.38
2023-02-03T18:34:13.821Z,82.88
2023-02-03T18:39:14.778Z,83.60
2023-02-03T18:41:42.396Z,82.86
2023-02-03T18:44:09.669Z,82.75
2023-02-03T18:46:36.828Z,83.21
2023-02-03T18:49:04.116Z,83.14
2023-02-03T18:51:31.074Z,83.23
2023-02-03T18:53:59.680Z,83.42
2023-02-03T18:56:35.341Z,83.43
2023-02-03T18:59:08.828Z,83.28
2023-02-03T19:01:39.008Z,83.09
2023-02-03T19:04:06.568Z,83.04
2023-02-03T19:06:34.923Z,84.37
2023-02-03T19:09:02.568Z,83.71
2023-02-03T19:11:29.928Z,83.20
2023-02-03T19:13:57.093Z,83.57
2023-02-03T19:16:24.111Z,83.67
2023-02-03T19:18:51.328Z,83.41
2023-02-03T19:21:18.466Z,83.40
2023-02-03T19:23:45.649Z,82.96
2023-02-03T19:26:12.652Z,82.12
2023-02-03T19:28:41.185Z,81.16
2023-02-03T19:31:11.344Z,80.69
2023-02-03T19:33:39.070Z,80.18
2023-02-03T19:36:07.008Z,79.46
2023-02-03T19:38:34.612Z,78.74
2023-02-03T19:41:02.681Z,77.41
2023-02-03T19:43:33.219Z,75.85
2023-02-03T19:46:00.600Z,75.58
2023-02-03T19:48:28.491Z,75.44
2023-02-03T19:50:56.041Z,75.72
2023-02-03T19:53:24.480Z,76.37
2023-02-03T19:55:51.654Z,76.45
2023-02-03T19:58:19.020Z,76.24
2023-02-03T20:00:46.163Z,76.03
2023-02-03T20:03:13.364Z,75.92
2023-02-03T20:05:40.664Z,76.95
2023-02-03T20:08:07.868Z,77.99
2023-02-03T20:10:34.898Z,76.96
2023-02-03T20:13:01.810Z,76.13
2023-02-03T20:15:28.830Z,76.40
2023-02-03T20:17:56.365Z,75.87
2023-02-03T20:20:23.392Z,76.39
2023-02-03T20:22:50.577Z,76.56
2023-02-03T20:25:18.547Z,77.18
2023-02-03T20:27:45.741Z,77.39
2023-02-03T20:30:13.216Z,77.44
2023-02-03T20:32:40.183Z,76.84
2023-02-03T20:35:07.596Z,75.57
2023-02-03T20:37:36.289Z,76.59
2023-02-03T20:40:12.450Z,76.49
2023-02-03T20:42:39.454Z,77.62
2023-02-03T20:45:13.908Z,75.65
2023-02-03T20:47:41.014Z,75.63
2023-02-03T20:50:18.550Z,74.09
2023-02-03T20:52:47.014Z,73.68
2023-02-03T20:55:19.208Z,73.35
2023-02-03T20:57:50.380Z,73.36
2023-02-03T21:00:20.672Z,73.83
2023-02-03T21:03:06.052Z,72.52
2023-02-03T21:05:36.867Z,74.34
2023-02-03T21:08:14.735Z,74.26
2023-02-03T21:10:42.331Z,74.55
2023-02-03T21:13:29.908Z,75.13
2023-02-03T21:16:04.617Z,74.44
2023-02-03T21:18:55.165Z,72.55
2023-02-03T21:21:35.044Z,70.35
2023-02-03T21:24:16.993Z,71.38
2023-02-03T21:26:43.995Z,71.91
2023-02-03T21:29:24.517Z,71.78
2023-02-03T21:31:52.776Z,70.63
2023-02-03T21:34:27.743Z,70.50
2023-02-03T21:36:56.032Z,70.85
2023-02-03T21:39:33.360Z,72.00
2023-02-03T21:42:43.814Z,71.61
2023-02-03T21:45:17.151Z,71.78
2023-02-03T21:47:45.566Z,69.53
2023-02-03T21:50:33.285Z,68.96
2023-02-03T21:53:09.494Z,68.07
2023-02-03T21:55:37.815Z,68.41
2023-02-03T21:58:17.288Z,68.72
2023-02-03T22:00:48.191Z,68.15
2023-02-03T22:03:27.231Z,68.03
2023-02-03T22:06:06.073Z,66.76
2023-02-03T22:08:36.851Z,66.59
2023-02-03T22:11:04.263Z,67.21
2023-02-03T22:13:31.365Z,68.40
2023-02-03T22:15:58.384Z,67.42
2023-02-03T22:18:26.114Z,67.04
2023-02-03T22:20:53.807Z,66.08
2023-02-03T22:23:21.157Z,64.81
2023-02-03T22:25:48.278Z,66.76
2023-02-03T22:28:15.616Z,66.98
2023-02-03T22:30:42.770Z,66.17
2023-02-03T22:33:09.718Z,65.10
2023-02-03T22:35:36.711Z,64.71
2023-02-03T22:38:03.722Z,65.73
2023-02-03T22:40:30.898Z,65.23
2023-02-03T22:42:58.091Z,66.33
2023-02-03T22:45:24.979Z,66.73
2023-02-03T22:47:51.900Z,65.53
2023-02-03T22:50:27.427Z,65.65
2023-02-03T22:53:04.268Z,64.51
2023-02-03T22:55:31.704Z,65.45
2023-02-03T22:57:59.414Z,65.64
2023-02-03T23:00:27.085Z,65.92
2023-02-03T23:02:54.489Z,64.75
2023-02-03T23:05:22.180Z,65.21
2023-02-03T23:07:49.835Z,64.87
2023-02-03T23:10:26.364Z,63.92
2023-02-03T23:12:53.195Z,65.66
2023-02-03T23:15:20.300Z,66.69
2023-02-03T23:17:47.280Z,66.57
2023-02-03T23:20:16.171Z,66.12
2023-02-03T23:22:43.845Z,64.06
2023-02-03T23:25:12.209Z,64.96
2023-02-03T23:27:39.341Z,65.07
2023-02-03T23:30:06.797Z,64.52
2023-02-03T23:32:33.955Z,65.04
2023-02-03T23:35:19.859Z,65.55
2023-02-03T23:37:46.840Z,63.00
2023-02-03T23:40:14.106Z,63.55
2023-02-03T23:42:41.200Z,63.85
2023-02-03T23:45:11.815Z,64.57
2023-02-03T23:47:40.679Z,63.75
2023-02-03T23:50:09.686Z,65.00
2023-02-03T23:52:37.326Z,64.96
2023-02-03T23:55:10.345Z,63.52
2023-02-03T23:57:37.485Z,62.02
